MUCM/CMW METAR and TAF weather

Enter ICAO airport designator
Station Type Date Time Source
MUCM METAR 2018/12/13 20:50 UTC NOAA

MUCM 132050Z 04014KT 9000 SCT020 27/21 Q1017


Station Type Date Time Source
MUCM Decoded METAR 2018/12/13 20:50 UTC NOAA

Camaguey Aeropuerto, Cuba (MUCM) 21-25N 077-51W 118M
Dec 13, 2018 - 03:50 PM EST / 2018.12.13 2050 UTC
Wind: from the NE (040 degrees) at 16 MPH (14 KT):0
Visibility: 5 mile(s):0
Sky conditions: partly cloudy
Temperature: 80 F (27 C)
Dew Point: 69 F (21 C)
Relative Humidity: 69%
Pressure (altimeter): 30.03 in. Hg (1017 hPa)
ob: MUCM 132050Z 04014KT 9000 SCT020 27/21 Q1017
cycle: 21

Station Type Date Time Source
MUCM TAF 2018/12/13 18:03 UTC NOAA

TAF MUCM 131700Z 1318/1418 05014KT 9000 SCT020
BECMG 1401/1403 VRB03KT
BECMG 1415/1417 15008KT


Example: see airport list